Terminal Aerodrome Forecast
Issued by NWS

Home | Current Version | Previous Version | Text Only | Print | Product List | Glossary On
Versions: 1 2 3 4 5 6 7 8 9 10 11 12 13 14 15
000
FTUS43 KICT 042328
TAFHUT
TAF
KHUT 042328Z 0500/0524 17015G22KT P6SM SCT080 BKN250
     FM050100 16010KT P6SM SCT100 BKN250
     FM050600 15008KT P6SM SCT035 BKN100
     FM051400 16015G22KT P6SM SCT040 BKN120
     FM052300 17015G22KT P6SM VCTS SCT050CB BKN080=

USA.gov is the U.S. government's official web portal to all federal, state and local government web resources and services.